Time;durP1;ratioP1;P1;durP2;ratioP2;P2;SDS_P1;SDS_P2;PMS_P1;PMS_P2;Temp;Humidity;BMP_temperature;BMP_pressure;BME280_temperature;BME280_humidity;BME280_pressure;Samples;Min_cycle;Max_cycle;Signal;HPM_P1;HPM_P2
2022/08/21 00:00:24;;;;;;;;;;;;;;;;;;;;;
2022/08/21 00:06:04;;;;;;;8.20;4.93;;;;;;;20.77;88.67;100185.77;3439186;82;4635980;-94
2022/08/21 00:10:35;;;;;;;8.70;5.30;;;;;;;20.75;89.10;100195.20;3314067;83;4795288;-88
2022/08/21 00:15:38;;;;;;;9.25;5.30;;;;;;;20.69;88.77;100192.22;3495741;82;90212;-86
2022/08/21 00:20:40;;;;;;;7.72;4.80;;;;;;;20.68;89.09;100195.45;3507585;83;98818;-87
2022/08/21 00:25:43;;;;;;;8.40;5.30;;;;;;;20.63;89.12;100189.03;3508839;83;25920;-86
2022/08/21 00:30:45;;;;;;;10.47;5.77;;;;;;;20.63;89.39;100201.02;3502101;82;98483;-86
2022/08/21 00:35:46;;;;;;;9.37;5.30;;;;;;;20.62;89.50;100200.85;3513161;82;26408;-86
2022/08/21 00:40:57;;;;;;;10.80;5.13;;;;;;;20.63;89.61;100202.41;3495199;82;98366;-87
2022/08/21 00:45:59;;;;;;;10.98;5.50;;;;;;;20.63;89.48;100192.63;3499947;82;99023;-88
2022/08/21 00:51:22;;;;;;;8.25;5.20;;;;;;;20.60;89.36;100192.11;3481372;82;26104;-88
2022/08/21 00:56:21;;;;;;;10.65;5.55;;;;;;;20.57;89.53;100196.43;3471144;82;98798;-88
2022/08/21 01:01:23;;;;;;;7.95;4.72;;;;;;;20.54;89.56;100184.13;3479807;82;26214;-89
2022/08/21 01:06:24;;;;;;;11.10;6.25;;;;;;;20.54;89.64;100181.97;3477575;82;98830;-90
2022/08/21 01:11:25;;;;;;;8.90;5.83;;;;;;;20.48;89.60;100176.15;3478378;82;25813;-90
2022/08/21 01:16:27;;;;;;;13.55;7.35;;;;;;;20.48;89.90;100183.14;3472086;82;98776;-88
2022/08/21 01:21:28;;;;;;;10.27;6.93;;;;;;;20.50;90.00;100182.70;3477761;83;25904;-87
2022/08/21 01:26:34;;;;;;;10.28;6.60;;;;;;;20.49;89.84;100181.13;3478835;82;99279;-89
2022/08/21 01:31:36;;;;;;;10.43;7.40;;;;;;;20.45;90.04;100171.47;3479491;82;28039;-89
2022/08/21 01:36:38;;;;;;;12.65;7.75;;;;;;;20.44;90.01;100167.09;3475845;83;98948;-88
2022/08/21 01:41:39;;;;;;;11.90;7.93;;;;;;;20.40;90.13;100166.45;3467616;83;34677;-89
2022/08/21 01:46:40;;;;;;;13.17;7.73;;;;;;;20.37;90.31;100166.53;3453234;84;99164;-90
2022/08/21 01:51:41;;;;;;;9.83;6.83;;;;;;;20.35;90.48;100167.61;3481291;82;26378;-90
2022/08/21 01:56:47;;;;;;;10.00;6.47;;;;;;;20.34;90.50;100162.66;3473531;83;98801;-90
2022/08/21 02:01:49;;;;;;;;;;;;;;;20.34;90.58;100162.66;3464380;83;30471;-90
2022/08/21 02:06:53;;;;;;;11.13;7.07;;;;;;;20.34;91.42;100165.45;3476421;83;85054;-90
2022/08/21 02:11:54;;;;;;;10.25;6.62;;;;;;;20.27;90.64;100153.72;3483610;82;25799;-90
2022/08/21 02:16:55;;;;;;;11.37;6.93;;;;;;;20.22;90.77;100159.87;3475341;82;98804;-88
2022/08/21 02:21:56;;;;;;;9.13;6.10;;;;;;;20.14;91.00;100155.13;3481354;82;26661;-89
2022/08/21 02:26:57;;;;;;;11.27;6.30;;;;;;;20.10;91.00;100151.65;3473940;83;99203;-87
2022/08/21 02:31:58;;;;;;;9.27;6.13;;;;;;;20.07;91.13;100151.16;3480212;83;33867;-88
2022/08/21 02:36:59;;;;;;;9.53;5.97;;;;;;;20.02;91.12;100148.89;3476159;82;98948;-87
2022/08/21 02:42:00;;;;;;;11.60;6.63;;;;;;;19.98;91.27;100138.44;3483038;83;33931;-87
2022/08/21 02:47:01;;;;;;;9.70;5.67;;;;;;;19.92;91.38;100134.64;3481866;82;98956;-87
2022/08/21 02:52:05;;;;;;;9.40;6.03;;;;;;;19.84;91.50;100136.08;3509025;82;33241;-86
2022/08/21 02:57:06;;;;;;;9.10;5.77;;;;;;;19.81;91.67;100138.39;3502484;83;98724;-84
2022/08/21 03:02:07;;;;;;;9.47;5.60;;;;;;;19.73;91.99;100139.05;3502281;83;26133;-86
2022/08/21 03:07:08;;;;;;;8.58;5.25;;;;;;;19.67;92.23;100141.59;3499033;82;98891;-84
2022/08/21 03:12:09;;;;;;;9.90;6.13;;;;;;;19.58;92.57;100136.52;3508061;83;40959;-84
2022/08/21 03:17:10;;;;;;;8.60;5.23;;;;;;;19.51;92.82;100138.89;3499109;82;98880;-84
2022/08/21 03:22:11;;;;;;;9.77;5.53;;;;;;;19.46;93.08;100143.62;3502605;82;25991;-85
2022/08/21 03:27:13;;;;;;;7.87;5.10;;;;;;;19.43;93.22;100145.13;3501716;82;98796;-85
2022/08/21 03:32:14;;;;;;;7.67;4.60;;;;;;;19.41;93.58;100148.36;3507368;83;68485;-86
2022/08/21 03:37:15;;;;;;;9.37;4.97;;;;;;;19.38;93.45;100149.86;3492158;82;98800;-84
2022/08/21 03:42:16;;;;;;;5.80;3.73;;;;;;;19.39;93.50;100163.38;3512433;83;33450;-84
2022/08/21 03:47:18;;;;;;;7.20;3.90;;;;;;;19.42;93.82;100162.51;3495562;82;98862;-82
2022/08/21 03:52:19;;;;;;;5.13;3.20;;;;;;;19.41;93.81;100161.55;3508553;83;33269;-83
2022/08/21 03:57:21;;;;;;;7.63;3.90;;;;;;;19.39;93.83;100173.15;3502456;82;98954;-82
2022/08/21 04:02:22;;;;;;;7.93;3.87;;;;;;;19.41;94.19;100176.27;3508833;83;33486;-82
2022/08/21 04:07:24;;;;;;;5.20;2.97;;;;;;;19.31;94.54;100173.80;3509359;82;98817;-82
2022/08/21 04:12:24;;;;;;;6.00;3.37;;;;;;;19.28;94.77;100178.25;3514914;83;55403;-82
2022/08/21 04:17:26;;;;;;;6.40;3.43;;;;;;;19.28;95.00;100188.02;3499384;82;98641;-81
2022/08/21 04:22:27;;;;;;;5.57;2.97;;;;;;;19.28;95.11;100190.80;3516134;83;33300;-80
2022/08/21 04:27:28;;;;;;;7.73;2.77;;;;;;;19.27;95.44;100202.40;3489254;84;98917;-81
2022/08/21 04:32:29;;;;;;;5.10;2.70;;;;;;;19.27;95.55;100207.98;3501825;83;33189;-81
2022/08/21 04:37:31;;;;;;;5.10;2.83;;;;;;;19.29;95.63;100215.32;3500676;82;98827;-81
2022/08/21 04:42:33;;;;;;;4.97;2.33;;;;;;;19.28;95.54;100209.55;3515138;83;33235;-81
2022/08/21 04:47:34;;;;;;;4.63;2.50;;;;;;;19.26;95.52;100212.00;3493319;82;98521;-81
2022/08/21 04:52:35;;;;;;;6.63;2.70;;;;;;;19.23;95.91;100214.30;3495596;83;33237;-81
2022/08/21 04:57:38;;;;;;;5.17;2.70;;;;;;;19.18;96.07;100216.19;3513123;82;98792;-81
2022/08/21 05:02:41;;;;;;;7.57;2.73;;;;;;;19.19;96.19;100220.55;3507798;83;40749;-81
2022/08/21 05:07:44;;;;;;;4.47;2.30;;;;;;;19.20;96.15;100221.50;3501941;83;98821;-81
2022/08/21 05:12:46;;;;;;;4.28;2.50;;;;;;;19.24;96.25;100214.46;3507255;83;26829;-81
2022/08/21 05:17:47;;;;;;;7.23;2.80;;;;;;;19.28;96.31;100220.70;3492773;83;98813;-82
2022/08/21 05:22:48;;;;;;;3.30;2.10;;;;;;;19.30;96.26;100232.23;3499614;83;33308;-81
2022/08/21 05:27:49;;;;;;;4.30;2.70;;;;;;;19.28;96.48;100227.68;3490436;83;98903;-80
2022/08/21 05:32:58;;;;;;;5.27;2.60;;;;;;;19.29;96.53;100238.41;3492964;83;26492;-81
2022/08/21 05:38:00;;;;;;;6.23;3.37;;;;;;;19.29;96.51;100245.39;3493570;82;98996;-81
2022/08/21 05:43:01;;;;;;;5.87;3.10;;;;;;;19.32;96.67;100235.35;3500650;83;26737;-81
2022/08/21 05:48:19;;;;;;;6.70;3.62;;;;;;;19.31;96.86;100230.40;3507516;82;98825;-81
2022/08/21 05:53:23;;;;;;;9.23;4.37;;;;;;;19.33;96.96;100229.34;3535460;83;26482;-81
2022/08/21 05:58:24;;;;;;;7.40;3.92;;;;;;;19.33;97.34;100229.94;3515099;82;98913;-81
2022/08/21 06:03:30;;;;;;;6.73;4.03;;;;;;;19.30;97.49;100228.81;3537302;83;25881;-81
2022/08/21 06:08:31;;;;;;;5.60;3.65;;;;;;;19.34;97.62;100227.34;3531446;82;98858;-81
2022/08/21 06:13:33;;;;;;;8.00;3.80;;;;;;;19.38;97.75;100227.41;3523042;83;26198;-82
2022/08/21 06:18:35;;;;;;;7.13;3.67;;;;;;;19.39;97.57;100215.02;3524694;82;98828;-81
2022/08/21 06:23:36;;;;;;;6.12;3.67;;;;;;;19.44;97.64;100206.09;3529059;82;48141;-82
2022/08/21 06:28:38;;;;;;;6.30;3.60;;;;;;;19.48;97.57;100193.44;3531829;82;98676;-82
2022/08/21 06:33:39;;;;;;;7.03;4.10;;;;;;;19.54;97.59;100193.05;3520670;82;26472;-82
2022/08/21 06:38:40;;;;;;;8.70;4.70;;;;;;;19.53;97.65;100196.48;3531218;82;98889;-82
2022/08/21 06:43:41;;;;;;;10.50;5.30;;;;;;;19.51;97.55;100194.72;3524247;83;29326;-82
2022/08/21 06:48:42;;;;;;;7.50;4.20;;;;;;;19.53;97.26;100195.68;3526316;82;98843;-82
2022/08/21 06:53:43;;;;;;;9.10;4.20;;;;;;;19.49;96.79;100191.60;3531725;82;32938;-83
2022/08/21 06:58:44;;;;;;;8.00;4.20;;;;;;;19.47;96.61;100212.20;3496748;83;98865;-82
2022/08/21 07:03:45;;;;;;;8.60;4.57;;;;;;;19.47;96.40;100231.75;3514550;82;33349;-83
2022/08/21 07:08:46;;;;;;;7.20;3.83;;;;;;;19.47;96.22;100242.91;3526070;82;98782;-83
2022/08/21 07:13:48;;;;;;;10.77;4.30;;;;;;;19.47;96.03;100247.09;3534856;82;33278;-82
2022/08/21 07:18:49;;;;;;;7.97;3.77;;;;;;;19.46;95.89;100253.88;3530484;82;99066;-83
2022/08/21 07:23:52;;;;;;;9.83;4.13;;;;;;;19.43;95.90;100253.98;3495833;83;33455;-83
2022/08/21 07:28:54;;;;;;;8.33;4.22;;;;;;;19.46;95.81;100255.91;3514624;82;98734;-83
2022/08/21 07:33:55;;;;;;;7.43;4.40;;;;;;;19.48;95.74;100256.23;3524295;81;25889;-83
2022/08/21 07:38:56;;;;;;;7.93;3.90;;;;;;;19.50;95.45;100256.59;3527157;82;98901;-83
2022/08/21 07:43:58;;;;;;;10.48;4.12;;;;;;;19.49;95.57;100248.83;3515158;83;36161;-83
2022/08/21 07:49:00;;;;;;;6.25;3.47;;;;;;;19.50;95.50;100248.23;3527469;83;99125;-83
2022/08/21 07:54:01;;;;;;;9.27;3.93;;;;;;;19.53;95.50;100248.72;3533051;82;26008;-83
2022/08/21 07:59:02;;;;;;;8.80;4.43;;;;;;;19.61;95.64;100249.47;3513650;82;98722;-83
2022/08/21 08:04:04;;;;;;;7.80;4.50;;;;;;;19.73;95.78;100248.72;3525270;83;25951;-82
2022/08/21 08:09:05;;;;;;;7.80;4.43;;;;;;;19.84;95.99;100242.84;3526880;82;98731;-82
2022/08/21 08:14:06;;;;;;;8.63;4.50;;;;;;;19.97;95.74;100243.63;3531137;82;25917;-82
2022/08/21 08:19:07;;;;;;;7.67;3.87;;;;;;;20.07;95.56;100257.94;3518786;83;98425;-82
2022/08/21 08:24:08;;;;;;;7.23;4.40;;;;;;;20.16;95.20;100253.87;3534063;82;29578;-82
2022/08/21 08:29:09;;;;;;;8.08;4.37;;;;;;;20.20;94.89;100255.32;3532750;82;98759;-82
2022/08/21 08:34:10;;;;;;;7.63;4.00;;;;;;;20.23;94.52;100257.23;3525017;82;25815;-82
2022/08/21 08:39:12;;;;;;;8.30;4.50;;;;;;;20.26;94.16;100268.11;3530935;82;98910;-82
2022/08/21 08:44:13;;;;;;;8.08;4.42;;;;;;;20.28;93.80;100276.85;3516644;82;26537;-82
2022/08/21 08:49:31;;;;;;;8.83;5.00;;;;;;;20.25;93.59;100281.32;3522924;83;98996;-82
2022/08/21 08:54:37;;;;;;;7.70;4.65;;;;;;;20.26;93.42;100273.70;3495131;83;26800;-82
2022/08/21 08:59:43;;;;;;;10.80;4.40;;;;;;;20.25;93.37;100270.74;3495725;82;98629;-82
2022/08/21 09:04:47;;;;;;;8.08;5.05;;;;;;;20.26;93.37;100263.92;3508558;83;26588;-82
2022/08/21 09:10:29;;;;;;;11.35;6.05;;;;;;;20.29;93.35;100263.84;3502059;82;98599;-82
2022/08/21 09:16:02;;;;;;;8.65;5.25;;;;;;;20.29;93.65;100265.23;3510364;82;26561;-82
2022/08/21 09:21:14;;;;;;;9.05;5.53;;;;;;;20.29;93.68;100277.81;3499740;83;40704;-83
2022/08/21 09:26:23;;;;;;;7.62;4.90;;;;;;;20.29;93.68;100286.80;3501673;82;98866;-82
2022/08/21 09:31:38;;;;;;;11.83;5.60;;;;;;;20.29;93.43;100285.40;3508171;83;26635;-83
2022/08/21 09:36:49;;;;;;;10.40;5.10;;;;;;;20.28;93.30;100286.00;3488674;83;99181;-83
2022/08/21 09:42:01;;;;;;;8.03;4.97;;;;;;;20.26;93.41;100287.08;3507247;83;26557;-82
2022/08/21 09:47:02;;;;;;;7.95;5.30;;;;;;;20.24;93.36;100290.14;3504498;82;98928;-83
2022/08/21 09:52:07;;;;;;;8.83;5.43;;;;;;;20.25;93.48;100287.52;3526020;83;26091;-82
2022/08/21 10:02:35;;;;;;;9.00;5.70;;;;;;;20.29;94.21;100284.80;3531750;83;31043;-82
2022/08/21 10:07:38;;;;;;;10.72;5.58;;;;;;;20.34;94.20;100274.46;3521622;82;98976;-82
2022/08/21 10:13:09;;;;;;;7.22;4.50;;;;;;;20.34;94.45;100287.04;3523879;83;26491;-82
2022/08/21 10:18:36;;;;;;;6.62;4.83;;;;;;;20.38;94.33;100291.88;3500408;82;98837;-82
2022/08/21 10:24:14;;;;;;;8.40;5.05;;;;;;;20.40;94.46;100286.65;3524211;83;26129;-83
2022/08/21 10:30:04;;;;;;;7.35;4.47;;;;;;;20.42;94.57;100308.55;3525575;82;98675;-83
2022/08/21 10:35:16;;;;;;;7.90;4.28;;;;;;;20.42;94.14;100311.34;3511919;83;25933;-82
2022/08/21 10:40:31;;;;;;;8.13;5.30;;;;;;;20.42;94.21;100302.34;3507784;82;98792;-83
2022/08/21 10:46:16;;;;;;;8.48;4.45;;;;;;;20.41;94.16;100297.99;3532268;83;26340;-83
2022/08/21 10:51:46;;;;;;;6.60;4.50;;;;;;;20.40;93.96;100302.02;3506667;82;26103;-82
2022/08/21 10:56:51;;;;;;;7.42;4.92;;;;;;;20.42;93.92;100287.58;3459582;82;98889;-83
2022/08/21 11:02:27;;;;;;;6.55;4.33;;;;;;;20.43;94.19;100277.98;3509197;82;30498;-83
2022/08/21 11:07:39;;;;;;;7.00;4.72;;;;;;;20.44;94.54;100280.31;3490940;82;98915;-83
2022/08/21 11:12:53;;;;;;;9.35;5.08;;;;;;;20.43;94.74;100281.55;3485705;84;26150;-83
2022/08/21 11:18:00;;;;;;;7.63;5.13;;;;;;;20.43;95.11;100285.73;3482333;84;99018;-82
2022/08/21 11:23:38;;;;;;;8.43;4.87;;;;;;;20.49;95.44;100280.39;3431142;84;26044;-82
2022/08/21 11:28:56;;;;;;;7.20;5.00;;;;;;;20.57;95.32;100274.72;3493413;83;99125;-82
2022/08/21 11:34:23;;;;;;;7.35;4.22;;;;;;;20.64;95.74;100274.48;3482771;82;26403;-82
2022/08/21 11:39:41;;;;;;;7.10;4.40;;;;;;;20.73;95.55;100277.40;3487895;82;98692;-82
2022/08/21 11:45:11;;;;;;;6.65;3.87;;;;;;;20.81;95.24;100278.11;3488940;82;26747;-82
2022/08/21 11:50:19;;;;;;;6.12;3.83;;;;;;;20.86;94.99;100274.75;3504614;82;98593;-82
2022/08/21 11:55:31;;;;;;;7.12;4.08;;;;;;;20.88;94.87;100256.89;3490548;83;42474;-82
2022/08/21 12:00:49;;;;;;;7.92;4.33;;;;;;;20.93;94.90;100245.80;3496778;82;98731;-82
2022/08/21 12:05:58;;;;;;;5.55;3.47;;;;;;;20.95;94.86;100235.72;3508864;83;26340;-81
2022/08/21 12:11:20;;;;;;;6.60;3.22;;;;;;;20.98;94.70;100252.98;3507853;83;57983;-81
2022/08/21 12:16:41;;;;;;;6.53;3.20;;;;;;;21.00;94.45;100269.33;3507510;82;98887;-82
2022/08/21 12:21:59;;;;;;;4.05;2.42;;;;;;;21.03;93.94;100276.84;3514101;83;26396;-82
2022/08/21 12:27:25;;;;;;;5.75;2.80;;;;;;;21.03;93.79;100279.00;3495474;82;98515;-83
2022/08/21 12:32:44;;;;;;;5.03;2.08;;;;;;;21.01;93.57;100289.88;3509077;83;26408;-82
2022/08/21 12:37:54;;;;;;;4.92;2.37;;;;;;;21.01;93.21;100292.67;3500613;82;98875;-83
2022/08/21 12:42:59;;;;;;;4.55;2.52;;;;;;;21.00;93.06;100298.71;3517579;82;35211;-83
2022/08/21 12:48:21;;;;;;;4.92;2.55;;;;;;;21.00;93.16;100293.91;3501718;83;98750;-84
2022/08/21 12:53:45;;;;;;;4.37;2.10;;;;;;;21.04;92.88;100295.19;3503267;83;59286;-84
2022/08/21 12:58:56;;;;;;;5.75;2.62;;;;;;;21.04;92.70;100300.15;3501843;82;98572;-83
2022/08/21 13:04:02;;;;;;;4.95;2.60;;;;;;;21.07;93.02;100304.06;3477910;83;26485;-83
2022/08/21 13:09:11;;;;;;;5.15;2.58;;;;;;;21.07;92.94;100312.45;3465340;83;2264096;-83
2022/08/21 13:14:35;;;;;;;5.65;2.90;;;;;;;21.11;92.59;100307.53;3502043;83;26525;-83
2022/08/21 13:19:36;;;;;;;4.30;2.22;;;;;;;21.09;92.44;100307.21;3509035;82;98696;-84
2022/08/21 13:24:37;;;;;;;4.20;2.25;;;;;;;21.11;92.27;100317.33;3492395;82;26017;-84
2022/08/21 13:29:39;;;;;;;4.93;1.97;;;;;;;21.04;92.15;100320.37;3509126;82;98758;-84
2022/08/21 13:34:40;;;;;;;6.03;2.20;;;;;;;20.96;92.02;100318.42;3491032;82;30808;-84
2022/08/21 13:39:41;;;;;;;4.77;2.30;;;;;;;20.88;91.87;100318.44;3509458;82;98772;-84
2022/08/21 13:44:46;;;;;;;3.77;1.83;;;;;;;20.82;91.45;100327.23;3495236;83;26001;-84
2022/08/21 13:49:51;;;;;;;4.40;2.22;;;;;;;20.73;91.21;100334.73;3502222;82;98712;-83
2022/08/21 13:55:02;;;;;;;3.55;2.05;;;;;;;20.67;91.02;100340.72;3514900;83;25826;-83
2022/08/21 14:00:21;;;;;;;6.05;2.08;;;;;;;20.58;90.81;100340.59;3493087;83;98542;-84
2022/08/21 14:05:29;;;;;;;5.95;2.40;;;;;;;20.50;90.74;100343.45;3478378;82;26255;-83
2022/08/21 14:10:31;;;;;;;3.30;2.00;;;;;;;20.43;90.96;100348.64;3494906;82;100095;-84
2022/08/21 14:15:38;;;;;;;4.78;2.37;;;;;;;20.40;90.87;100352.95;3501317;83;26301;-83
2022/08/21 14:20:40;;;;;;;5.20;2.77;;;;;;;20.36;91.04;100358.65;3500598;83;98592;-83
2022/08/21 14:25:45;;;;;;;4.95;2.37;;;;;;;20.34;91.19;100363.11;3496683;83;34691;-85
2022/08/21 14:30:47;;;;;;;5.33;2.27;;;;;;;20.29;91.21;100375.64;3502346;83;98767;-84
2022/08/21 14:35:48;;;;;;;5.72;2.37;;;;;;;20.23;91.01;100380.20;3501340;83;113184;-85
2022/08/21 14:40:53;;;;;;;6.47;2.80;;;;;;;20.11;90.71;100383.73;3508694;82;98619;-85
2022/08/21 14:45:55;;;;;;;5.67;2.15;;;;;;;20.07;90.61;100394.24;3511278;83;27129;-85
2022/08/21 14:50:56;;;;;;;7.00;2.40;;;;;;;20.02;90.44;100396.74;3504370;82;397462;-85
2022/08/21 14:56:07;;;;;;;6.57;2.30;;;;;;;19.96;90.55;100392.92;3509634;82;98939;-84
2022/08/21 15:01:11;;;;;;;4.40;2.12;;;;;;;19.91;90.48;100401.23;3504261;83;26352;-85
2022/08/21 15:06:13;;;;;;;9.20;2.98;;;;;;;19.88;90.43;100399.91;3502135;83;98581;-86
2022/08/21 15:11:20;;;;;;;6.60;2.43;;;;;;;19.84;90.29;100400.02;3500149;83;27842;-86
2022/08/21 15:16:22;;;;;;;4.37;2.45;;;;;;;19.75;90.26;100403.27;3504110;82;98717;-84
2022/08/21 15:21:23;;;;;;;6.78;2.85;;;;;;;19.70;90.28;100410.19;3494805;83;98278;-85
2022/08/21 15:26:25;;;;;;;5.53;2.60;;;;;;;19.67;90.31;100413.08;3508863;82;98702;-86
2022/08/21 15:31:27;;;;;;;4.80;2.77;;;;;;;19.61;90.31;100406.45;3470846;83;53699;-85
2022/08/21 15:36:28;;;;;;;7.00;2.47;;;;;;;19.51;90.05;100407.51;3482841;82;98920;-85
2022/08/21 15:41:29;;;;;;;5.13;2.50;;;;;;;19.40;90.06;100409.16;3501945;82;25810;-86
2022/08/21 15:46:31;;;;;;;5.73;2.30;;;;;;;19.35;90.03;100413.09;3502001;83;98805;-86
2022/08/21 15:51:34;;;;;;;4.28;2.27;;;;;;;19.31;90.04;100411.80;3507463;83;26505;-87
2022/08/21 15:56:40;;;;;;;4.45;2.22;;;;;;;19.28;90.10;100415.44;3533609;81;98390;-86
2022/08/21 16:01:42;;;;;;;6.65;3.02;;;;;;;19.25;90.28;100414.94;3542930;81;26086;-87
2022/08/21 16:06:43;;;;;;;7.12;2.65;;;;;;;19.20;90.27;100405.66;3536164;82;98690;-87
2022/08/21 16:11:45;;;;;;;5.07;2.53;;;;;;;19.13;90.43;100410.63;3539711;81;26693;-87
2022/08/21 16:17:03;;;;;;;;;;;;;;;;;;;;;
2022/08/21 16:21:52;;;;;;;4.67;2.42;;;;;;;18.95;90.06;100413.02;3474216;83;50220;-87
2022/08/21 16:26:55;;;;;;;5.22;2.87;;;;;;;18.88;90.27;100407.61;3533337;81;98705;-87
2022/08/21 16:31:56;;;;;;;4.03;2.35;;;;;;;18.84;90.36;100407.70;3517735;83;26548;-87
2022/08/21 16:36:58;;;;;;;7.00;2.80;;;;;;;18.82;90.51;100407.95;3500013;82;98781;-87
2022/08/21 16:41:59;;;;;;;5.47;2.87;;;;;;;18.78;90.72;100407.24;3535042;81;26091;-88
2022/08/21 16:47:01;;;;;;;7.63;2.83;;;;;;;18.74;91.05;100406.55;3521316;81;98381;-86
2022/08/21 16:52:03;;;;;;;7.20;2.80;;;;;;;18.70;91.40;100409.40;3521587;83;25872;-87
2022/08/21 16:57:04;;;;;;;7.70;3.30;;;;;;;18.64;91.60;100405.55;3505921;82;98814;-87
2022/08/21 17:02:12;;;;;;;5.53;2.70;;;;;;;18.61;91.84;100407.03;3515561;83;29486;-87
2022/08/21 17:07:13;;;;;;;6.78;2.77;;;;;;;18.60;92.03;100409.05;3476174;83;98533;-87
2022/08/21 17:12:16;;;;;;;6.70;2.70;;;;;;;18.63;92.26;100410.19;3487484;83;25943;-87
2022/08/21 17:17:18;;;;;;;5.90;2.75;;;;;;;18.64;92.36;100420.89;3500182;83;98764;-87
2022/08/21 17:22:19;;;;;;;5.43;3.00;;;;;;;18.66;92.61;100425.44;3501664;83;26142;-88
2022/08/21 17:27:24;;;;;;;6.40;2.63;;;;;;;18.67;92.60;100424.22;3508493;82;98399;-85
2022/08/21 17:32:25;;;;;;;9.15;3.58;;;;;;;18.70;92.66;100429.54;3515365;83;26395;-87
2022/08/21 17:37:26;;;;;;;7.60;3.10;;;;;;;18.69;92.75;100429.38;3503248;83;98631;-87
2022/08/21 17:42:28;;;;;;;6.73;2.93;;;;;;;18.66;92.83;100431.02;3509029;83;25974;-86
2022/08/21 17:47:30;;;;;;;6.37;2.97;;;;;;;18.67;92.87;100428.40;3496262;82;98500;-87
2022/08/21 17:52:31;;;;;;;7.87;2.93;;;;;;;18.66;92.99;100433.01;3510062;83;26638;-87
2022/08/21 17:57:34;;;;;;;9.97;3.47;;;;;;;18.61;93.10;100435.70;3508732;82;98710;-88
2022/08/21 18:02:36;;;;;;;10.13;3.80;;;;;;;18.58;93.52;100442.75;3502432;83;26090;-87
2022/08/21 18:07:38;;;;;;;4.50;2.40;;;;;;;18.52;93.87;100448.03;3495742;83;190784;-88
2022/08/21 18:12:42;;;;;;;4.17;1.77;;;;;;;18.42;93.60;100445.48;3503535;83;25898;-88
2022/08/21 18:17:47;;;;;;;4.20;1.70;;;;;;;18.31;93.01;100438.68;3499451;83;98556;-90
2022/08/21 18:22:49;;;;;;;3.90;1.57;;;;;;;18.23;92.75;100441.44;3506922;82;40461;-90
2022/08/21 18:27:51;;;;;;;5.23;1.90;;;;;;;18.17;93.02;100440.97;3506015;82;98504;-89
2022/08/21 18:32:54;;;;;;;5.75;2.10;;;;;;;18.17;93.10;100443.16;3508072;83;25863;-89
2022/08/21 18:37:55;;;;;;;6.67;1.95;;;;;;;18.14;92.95;100456.53;3483964;83;98783;-90
2022/08/21 18:42:56;;;;;;;6.57;1.87;;;;;;;18.12;93.07;100453.40;3502131;83;25915;-90
2022/08/21 18:47:57;;;;;;;4.23;1.70;;;;;;;18.14;93.14;100458.55;3472788;82;1875883;-90
2022/08/21 18:52:58;;;;;;;4.90;1.70;;;;;;;18.12;93.15;100453.99;3519657;83;26394;-89
2022/08/21 18:57:59;;;;;;;5.60;2.03;;;;;;;18.10;92.94;100455.03;3510883;82;241805;-91
2022/08/21 19:03:01;;;;;;;4.50;1.90;;;;;;;18.07;93.03;100455.28;3525391;82;34069;-90
2022/08/21 19:08:02;;;;;;;5.85;1.90;;;;;;;18.05;93.17;100463.26;3507397;82;98637;-90
2022/08/21 19:13:04;;;;;;;5.10;1.93;;;;;;;18.05;93.24;100456.30;3521487;82;33299;-91
2022/08/21 19:18:09;;;;;;;4.70;1.77;;;;;;;18.03;93.11;100456.57;3527818;83;98727;-92
2022/08/21 19:23:15;;;;;;;4.83;1.90;;;;;;;18.00;92.89;100450.45;3522425;83;26440;-92
2022/08/21 19:28:21;;;;;;;8.28;2.35;;;;;;;17.95;92.80;100450.94;3519471;82;98892;-92
2022/08/21 19:33:28;;;;;;;8.25;2.47;;;;;;;17.91;92.99;100445.44;3526152;83;37211;-92
2022/08/21 19:38:29;;;;;;;7.20;2.50;;;;;;;17.88;92.90;100448.29;3515437;82;98710;-92
2022/08/21 19:43:48;;;;;;;6.07;2.07;;;;;;;17.85;92.88;100438.79;3495832;83;26206;-91
2022/08/21 19:48:50;;;;;;;5.17;2.27;;;;;;;17.84;92.84;100446.17;3504593;82;98808;-92
2022/08/21 19:53:53;;;;;;;6.45;2.92;;;;;;;17.79;92.94;100441.88;3527951;83;26587;-91
2022/08/21 19:58:56;;;;;;;7.47;3.00;;;;;;;17.78;93.01;100447.88;3524338;81;98457;-92
2022/08/21 20:03:57;;;;;;;6.80;3.45;;;;;;;17.77;93.25;100441.50;3541568;83;28022;-91
2022/08/21 20:08:59;;;;;;;7.17;3.67;;;;;;;17.77;93.29;100457.44;3501445;81;98653;-92
2022/08/21 20:14:00;;;;;;;7.53;3.17;;;;;;;17.76;93.43;100461.44;3530746;81;47372;-92
2022/08/21 20:19:06;;;;;;;6.40;2.62;;;;;;;17.75;93.59;100455.67;3535056;82;98529;-91
2022/08/21 20:24:07;;;;;;;7.97;2.80;;;;;;;17.75;93.63;100451.49;3527311;83;25977;-90
2022/08/21 20:29:08;;;;;;;6.70;2.98;;;;;;;17.74;93.76;100447.94;3541369;81;149124;-91
2022/08/21 20:34:10;;;;;;;7.03;3.25;;;;;;;17.75;93.91;100448.70;3535578;81;64593;-91
2022/08/21 20:39:11;;;;;;;6.23;2.80;;;;;;;17.75;93.94;100440.36;3500734;83;98552;-90
2022/08/21 20:44:13;;;;;;;6.57;3.10;;;;;;;17.74;93.75;100442.97;3524132;81;25902;-90
2022/08/21 20:49:19;;;;;;;15.05;4.15;;;;;;;17.70;93.60;100445.02;3535906;81;98908;-92
2022/08/21 20:54:42;;;;;;;7.47;3.70;;;;;;;17.64;93.61;100441.95;3535782;81;25829;-93
2022/08/21 20:59:54;;;;;;;4.87;2.30;;;;;;;17.60;93.70;100430.08;3520900;82;98670;-91
2022/08/21 21:05:26;;;;;;;6.15;2.27;;;;;;;17.55;93.74;100429.80;3523063;83;28751;-91
2022/08/21 21:10:53;;;;;;;5.33;2.12;;;;;;;17.51;93.87;100434.03;3514816;82;98296;-92
2022/08/21 21:16:11;;;;;;;5.10;2.20;;;;;;;17.47;94.04;100433.30;3512653;83;26308;-93
2022/08/21 21:21:26;;;;;;;4.22;1.77;;;;;;;17.46;94.18;100443.45;3531956;82;26376;-93
2022/08/21 21:26:39;;;;;;;8.43;1.87;;;;;;;17.47;94.00;100450.59;3531154;82;98788;-94
2022/08/21 21:31:40;;;;;;;4.15;1.62;;;;;;;17.44;93.84;100450.83;3508841;83;42227;-93
2022/08/21 21:36:53;;;;;;;5.22;2.00;;;;;;;17.43;93.96;100452.66;3520203;82;98765;-93
2022/08/21 21:42:08;;;;;;;8.00;2.62;;;;;;;17.42;94.00;100451.87;3535073;82;25834;-92
2022/08/21 21:47:29;;;;;;;4.78;1.95;;;;;;;17.41;94.01;100453.08;3507285;82;99621;-93
2022/08/21 21:52:53;;;;;;;4.92;1.80;;;;;;;17.39;94.04;100452.70;3513267;82;113167;-92
2022/08/21 21:58:12;;;;;;;4.65;2.20;;;;;;;17.37;94.08;100462.05;3432301;85;98959;-93
2022/08/21 22:03:30;;;;;;;6.87;1.80;;;;;;;17.38;94.25;100455.89;3422441;85;26400;-92
2022/08/21 22:08:57;;;;;;;8.08;2.40;;;;;;;17.37;94.32;100455.09;3412504;84;98969;-93
2022/08/21 22:14:06;;;;;;;6.00;1.90;;;;;;;17.42;94.41;100458.82;3420171;85;33945;-93
2022/08/21 22:19:24;;;;;;;5.43;1.80;;;;;;;17.44;94.41;100454.23;3443120;83;98605;-93
2022/08/21 22:24:34;;;;;;;6.45;1.90;;;;;;;17.44;94.19;100450.06;3390670;85;26180;-92
2022/08/21 22:29:52;;;;;;;4.43;1.60;;;;;;;17.43;94.20;100450.65;3426150;84;98554;-92
2022/08/21 22:35:18;;;;;;;4.55;1.85;;;;;;;17.44;94.34;100457.78;3424225;84;31839;-93
2022/08/21 22:40:27;;;;;;;6.17;2.23;;;;;;;17.45;94.24;100455.17;3416272;84;98630;-92
2022/08/21 22:45:32;;;;;;;6.35;2.37;;;;;;;17.45;94.24;100451.00;3432142;84;26029;-93
2022/08/21 22:50:34;;;;;;;6.50;2.35;;;;;;;17.46;94.16;100452.59;3421992;84;98693;-91
2022/08/21 22:55:46;;;;;;;6.90;1.90;;;;;;;17.46;94.21;100449.81;3475662;83;26910;-92
2022/08/21 23:01:22;;;;;;;4.58;1.90;;;;;;;17.47;94.13;100444.43;3535254;82;98201;-92
2022/08/21 23:06:49;;;;;;;4.90;1.80;;;;;;;17.46;94.10;100441.47;3521132;82;98778;-93
2022/08/21 23:11:51;;;;;;;5.10;2.33;;;;;;;17.47;94.22;100443.03;3519286;81;26441;-93
2022/08/21 23:17:10;;;;;;;3.50;1.70;;;;;;;17.47;94.18;100439.45;3523156;81;98779;-92
2022/08/21 23:23:05;;;;;;;5.55;2.25;;;;;;;17.47;94.16;100438.06;3523757;82;25606;-92
2022/08/21 23:28:23;;;;;;;6.30;2.05;;;;;;;17.47;94.33;100431.91;3448750;81;98872;-93
2022/08/21 23:33:54;;;;;;;6.17;1.77;;;;;;;17.47;94.20;100436.67;3527822;81;26549;-92
2022/08/21 23:39:21;;;;;;;4.83;2.00;;;;;;;17.46;94.31;100436.50;3501826;81;98940;-93
2022/08/21 23:44:42;;;;;;;5.65;2.02;;;;;;;17.46;94.15;100436.50;3522529;83;25820;-91
2022/08/21 23:49:52;;;;;;;3.67;1.85;;;;;;;17.41;94.00;100433.60;3528178;81;98390;-92
2022/08/21 23:55:11;;;;;;;6.80;2.30;;;;;;;17.38;93.94;100436.42;3521478;81;25972;-92
